Webcam Flughafen St.Gallen-Altenrhein

Live-Bilder und Zeitraffer LSZR / ACH.

 

Live aus Altenrhein
LIVE
LSZR 082150Z AUTO VRB01KT 9999 OVC070 07/04 Q1009
Zeitraffer heute
2019-12-08 00:14:31
LSZR 072250Z AUTO VRB02KT 9999 OVC050 06/05 Q1020